Flight Track Log - Related Links

Times and Time Zones

All times are in EDT time to prevent confusion due to time zone crossing. See the SKW4965 flight status page for this flight to view local times or setup timezone preferences in your user account.

Time Position Orientation Groundspeed Altitude Reporting Facility
EDT Latitude Longitude Course Direction KTS MPH feet Rate Location/Type
Thu 09:18:50 AM 39.2561 -106.8764 173° South 181 208 39,000  Level Denver Center
Thu 09:19:52 AM 39.2881 -106.9356 305° West 262 302 10,500 -12,976 Descending Denver Center
Thu 09:20:53 AM 39.3086 -107.0317 285° West 270 311 12,400 2,016 Climbing Denver Center
Thu 09:21:00 AM 39.3177 -107.1427 175° South  Level FlightAware Approximate
Thu 09:21:54 AM 39.3403 -107.1253 294° West 295 339 14,600  Level Denver Center
Thu 09:22:00 AM 39.2045 -107.1285 173° South  Level FlightAware Approximate
Thu 09:22:55 AM 39.2736 -107.1586 201° Southwest 298 343 16,500  Level Denver Center
Thu 09:23:00 AM 39.0913 -107.1167 180° South  Level FlightAware Approximate
Thu 09:23:56 AM 39.2139 -107.0853 136° Southeast 298 343 18,100  Level Denver Center
Thu 09:24:00 AM 38.9782 -107.1019 173° South  Level FlightAware Approximate
Thu 09:24:57 AM 39.1233 -107.0775 176° South 326 375 19,300  Level Denver Center
Thu 09:25:59 AM 39.0056 -107.0708 177° South 357 411 20,700 1,561 Climbing Denver Center
Thu 09:27:00 AM 38.9061 -107.0664 178° South 369 425 22,500 1,672 Climbing Denver Center
Thu 09:28:01 AM 38.7961 -107.0600 177° South 372 428 24,100 1,475 Climbing Denver Center
Thu 09:29:02 AM 38.6908 -107.0533 177° South 378 435 25,500 1,268 Climbing Denver Center
Thu 09:30:04 AM 38.5814 -107.0475 178° South 390 449 26,700 1,073 Climbing Denver Center
Thu 09:31:05 AM 38.4714 -107.0311 173° South 399 459 27,700 1,033 Climbing Denver Center
Thu 09:32:06 AM 38.3983 -106.9225 131° Southeast 405 466 28,800 578 Climbing Denver Center
Thu 09:33:20 AM 38.3294 -106.8017 126° Southeast 417 480 29,000 311 Climbing Denver Center
Thu 09:34:21 AM 38.2356 -106.6344 126° Southeast 456 525 29,500 732 Climbing Denver Center
Thu 09:35:23 AM 38.1639 -106.5075 126° Southeast 458 527 30,500 1,024 Climbing Denver Center
Thu 09:36:24 AM 38.0792 -106.3592 126° Southeast 456 525 31,600 1,033 Climbing Denver Center
Thu 09:37:25 AM 38.0103 -106.2358 125° Southeast 450 518 32,600 927 Climbing Denver Center
Thu 09:38:27 AM 37.9400 -106.1131 126° Southeast 450 518 33,500 1,024 Climbing Denver Center
Thu 09:39:28 AM 37.8592 -105.9714 126° Southeast 447 514 34,700 1,033 Climbing Denver Center
Thu 09:40:29 AM 37.7886 -105.8519 127° Southeast 443 510 35,600 1,024 Climbing Denver Center
Thu 09:41:31 AM 37.7092 -105.7125 126° Southeast 438 504 36,800 618 Climbing Denver Center
Thu 09:42:45 AM 37.6294 -105.5764 126° Southeast 431 496 37,000 89 Climbing Denver Center
Thu 09:43:46 AM 37.5469 -105.4347 126° Southeast 444 511 37,000  Level Denver Center
Thu 09:44:47 AM 37.4694 -105.3036 127° Southeast 445 512 37,000  Level Denver Center
Thu 09:45:49 AM 37.3989 -105.1825 126° Southeast 447 514 37,000  Level Denver Center
Thu 09:46:50 AM 37.3236 -105.0544 126° Southeast 449 517 37,000  Level Denver Center
Thu 09:47:52 AM 37.2525 -104.9350 127° Southeast 447 514 37,000 488 Level Denver Center
Thu 09:48:53 AM 37.1703 -104.7961 127° Southeast 446 513 38,000 976 Climbing Denver Center
Thu 09:49:55 AM 37.1017 -104.6817 127° Southeast 436 502 39,000 488 Climbing Denver Center
Thu 09:50:56 AM 37.0225 -104.5503 127° Southeast 427 491 39,000  Level Denver Center
Thu 09:51:58 AM 36.9539 -104.4364 127° Southeast 428 493 39,000  Level Denver Center
Thu 09:52:54 AM 36.8856 -104.3239 127° Southeast 428 493 39,000  Level Albuquerque Center
Thu 09:53:55 AM 36.8172 -104.2100 127° Southeast 429 494 39,000  Level Albuquerque Center
Thu 09:54:57 AM 36.7350 -104.0775 128° Southeast 432 497 39,000  Level Albuquerque Center
Thu 09:55:58 AM 36.6583 -103.9522 127° Southeast 434 499 39,000  Level Albuquerque Center
Thu 09:56:59 AM 36.5836 -103.8283 127° Southeast 439 505 39,000  Level Albuquerque Center
Thu 09:58:01 AM 36.5072 -103.7047 128° Southeast 444 511 39,000  Level Albuquerque Center
Thu 09:59:02 AM 36.4322 -103.5831 127° Southeast 441 507 39,000  Level Albuquerque Center
Thu 10:00:04 AM 36.3561 -103.4594 127° Southeast 443 510 39,000  Level Albuquerque Center
Thu 10:01:05 AM 36.2808 -103.3378 127° Southeast 441 507 39,000  Level Albuquerque Center
Thu 10:02:07 AM 36.2044 -103.2158 128° Southeast 441 507 39,000  Level Albuquerque Center
Thu 10:03:09 AM 36.1278 -103.0933 128° Southeast 444 511 39,000  Level Albuquerque Center
Thu 10:04:10 AM 36.0519 -102.9719 128° Southeast 443 510 39,000  Level Albuquerque Center
Thu 10:05:12 AM 35.9747 -102.8506 128° Southeast 443 510 39,000  Level Albuquerque Center
Thu 10:06:13 AM 35.8994 -102.7311 128° Southeast 442 509 39,000  Level Albuquerque Center
Thu 10:07:15 AM 35.8239 -102.6108 128° Southeast 443 510 39,000  Level Albuquerque Center
Thu 10:08:17 AM 35.7319 -102.4672 128° Southeast 445 512 39,000  Level Albuquerque Center
Thu 10:09:18 AM 35.6550 -102.3478 128° Southeast 445 512 39,000  Level Albuquerque Center
Thu 10:10:20 AM 35.5786 -102.2272 128° Southeast 447 514 39,000  Level Albuquerque Center
Thu 10:11:22 AM 35.5014 -102.1078 128° Southeast 449 517 39,000  Level Albuquerque Center
Thu 10:12:23 AM 35.4233 -101.9878 129° Southeast 450 518 39,000  Level Albuquerque Center
Thu 10:13:25 AM 35.3417 -101.8589 128° Southeast 450 518 39,000  Level Albuquerque Center
Thu 10:14:27 AM 35.2606 -101.7350 129° Southeast 457 526 39,000  Level Albuquerque Center
Thu 10:15:28 AM 35.1731 -101.6033 129° Southeast 459 528 39,000  Level Albuquerque Center
Thu 10:16:30 AM 35.0958 -101.4808 128° Southeast 457 526 39,000  Level Albuquerque Center
Thu 10:17:32 AM 35.0161 -101.3575 128° Southeast 459 528 39,000  Level Albuquerque Center
Thu 10:18:34 AM 34.9392 -101.2408 129° Southeast 465 535 39,000  Level Albuquerque Center
Thu 10:19:36 AM 34.8422 -101.0922 128° Southeast 466 536 39,000  Level Albuquerque Center
Thu 10:20:37 AM 34.7617 -100.9694 129° Southeast 466 536 39,000  Level Albuquerque Center
Thu 10:21:39 AM 34.6806 -100.8464 129° Southeast 466 536 39,000  Level Albuquerque Center
Thu 10:22:41 AM 34.5989 -100.7211 128° Southeast 471 542 39,000  Level Albuquerque Center
Thu 10:23:43 AM 34.5167 -100.5986 129° Southeast 471 542 39,000  Level Albuquerque Center
Thu 10:24:45 AM 34.4344 -100.4753 129° Southeast 470 541 39,000  Level Albuquerque Center
Thu 10:25:47 AM 34.3361 -100.3278 129° Southeast 470 541 39,000  Level Albuquerque Center
Thu 10:26:38 AM 34.2669 -100.2281 130° Southeast 469 540 39,000  Level Fort Worth Center
Thu 10:27:38 AM 34.1861 -100.1050 128° Southeast 464 534 39,000  Level Fort Worth Center
Thu 10:28:39 AM 34.1053 -99.9819 128° Southeast 464 534 39,000  Level Fort Worth Center
Thu 10:29:38 AM 34.0219 -99.8617 130° Southeast 464 534 39,000  Level Fort Worth Center
Thu 10:30:38 AM 33.9408 -99.7392 129° Southeast 464 534 39,000  Level Fort Worth Center
Thu 10:31:39 AM 33.8697 -99.6350 129° Southeast 464 534 39,000  Level Fort Worth Center
Thu 10:32:38 AM 33.7864 -99.5128 129° Southeast 464 534 39,000  Level Fort Worth Center
Thu 10:33:39 AM 33.7047 -99.3908 129° Southeast 464 534 39,000  Level Fort Worth Center
Thu 10:34:38 AM 33.6231 -99.2719 130° Southeast 464 534 39,000  Level Fort Worth Center
Thu 10:35:39 AM 33.5414 -99.1556 130° Southeast 459 528 39,000  Level Fort Worth Center
Thu 10:36:38 AM 33.4575 -99.0369 130° Southeast 464 534 39,000  Level Fort Worth Center
Thu 10:37:39 AM 33.3794 -98.9211 129° Southeast 464 534 39,000  Level Fort Worth Center
Thu 10:38:38 AM 33.2972 -98.8053 130° Southeast 459 528 39,000  Level Fort Worth Center
Thu 10:39:38 AM 33.2172 -98.6897 130° Southeast 459 528 39,000  Level Fort Worth Center
Thu 10:40:38 AM 33.1369 -98.5744 130° Southeast 464 534 39,000  Level Fort Worth Center
Thu 10:41:38 AM 33.0483 -98.4544 131° Southeast 446 513 39,000  Level Fort Worth Center
Thu 10:42:38 AM 32.9656 -98.3394 131° Southeast 440 506 39,000  Level Fort Worth Center
Thu 10:43:39 AM 32.8869 -98.2247 129° Southeast 445 512 39,000  Level Fort Worth Center
Thu 10:44:39 AM 32.8042 -98.1106 131° Southeast 445 512 39,000  Level Fort Worth Center
Thu 10:45:39 AM 32.7214 -97.9986 131° Southeast 450 518 39,000  Level Fort Worth Center
Thu 10:46:38 AM 32.6278 -97.8994 138° Southeast 444 511 39,000  Level Fort Worth Center
Thu 10:47:39 AM 32.5322 -97.7978 138° Southeast 450 518 39,000  Level Fort Worth Center
Thu 10:48:39 AM 32.4364 -97.6989 139° Southeast 455 524 39,000  Level Fort Worth Center
Thu 10:49:39 AM 32.3425 -97.6028 139° Southeast 461 531 39,000  Level Fort Worth Center
Thu 10:50:39 AM 32.2508 -97.5042 138° Southeast 456 525 39,000 -100 Level Fort Worth Center
Thu 10:51:39 AM 32.1592 -97.4086 139° Southeast 451 519 38,800 -600 Descending Fort Worth Center
Thu 10:52:39 AM 32.0692 -97.3106 137° Southeast 451 519 37,800 -1,000 Descending Fort Worth Center
Thu 10:53:39 AM 31.9753 -97.2175 140° Southeast 446 513 36,800 -958 Descending Fort Worth Center
Thu 10:54:38 AM 31.8831 -97.1147 137° Southeast 446 513 35,900 -911 Descending Fort Worth Center
Thu 10:55:31 AM 31.8094 -97.0403 139° Southeast 450 518 35,100 -983 Descending Houston Center
Thu 10:56:34 AM 31.7158 -96.9442 139° Southeast 444 511 34,000 -1,440 Descending Houston Center
Thu 10:57:36 AM 31.6214 -96.8453 138° Southeast 447 514 32,100 -1,984 Descending Houston Center
Thu 10:58:38 AM 31.5089 -96.7297 139° Southeast 452 520 29,900 -1,500 Descending Houston Center
Thu 10:59:40 AM 31.4131 -96.6317 139° Southeast 451 519 29,000 -581 Descending Houston Center
Thu 11:00:42 AM 31.3164 -96.5358 140° Southeast 448 516 28,700 -1,355 Descending Houston Center
Thu 11:01:44 AM 31.2114 -96.4533 146° Southeast 446 513 26,200 -2,274 Descending Houston Center
Thu 11:02:46 AM 31.1100 -96.3731 146° Southeast 435 501 24,000 -2,032 Descending Houston Center
Thu 11:03:48 AM 31.0083 -96.2944 146° Southeast 431 496 22,000 -2,448 Descending Houston Center
Thu 11:04:51 AM 30.9078 -96.2161 146° Southeast 430 495 18,900 -2,832 Descending Houston Center
Thu 11:05:53 AM 30.8106 -96.1381 145° Southeast 421 484 16,100 -2,758 Descending Houston Center
Thu 11:06:55 AM 30.7047 -96.0572 147° Southeast 386 444 13,200 -2,371 Descending Houston Center
Thu 11:07:57 AM 30.6267 -95.9964 146° Southeast 359 413 11,200 -1,548 Descending Houston Center
Thu 11:08:59 AM 30.5506 -95.9372 146° Southeast 336 387 10,000 -581 Descending Houston Center
Thu 11:10:01 AM 30.4847 -95.8861 146° Southeast 292 336 10,000  Level Houston Center
Thu 11:11:03 AM 30.4214 -95.8328 144° Southeast 281 323 10,000 -629 Level Houston Center
Thu 11:12:05 AM 30.3258 -95.8267 177° South 287 330 8,700 -968 Descending Houston Center
Thu 11:13:07 AM 30.2453 -95.8231 178° South 290 334 8,000 -576 Descending Houston Center
Thu 11:14:10 AM 30.1728 -95.7978 163° South 278 320 7,500 -768 Descending Houston Center
Thu 11:15:12 AM 30.1086 -95.7544 150° Southeast 269 310 6,400 -823 Descending Houston Center
Thu 11:16:14 AM 30.0467 -95.7161 152° Southeast 256 295 5,800 -823 Descending Houston Center
Thu 11:17:16 AM 30.0128 -95.6519 121° Southeast 237 273 4,700 -1,016 Descending Houston Center
Thu 11:18:18 AM 29.9956 -95.5806 106° East 191 220 3,700 -774 Descending Houston Center
Thu 11:19:20 AM 29.9928 -95.5244 93° East 177 204 3,100 -871 Descending Houston Center
Thu 11:20:22 AM 29.9939 -95.4650 89° East 179 206 1,900 -968 Descending Houston Center
Thu 11:21:24 AM 29.9947 -95.4139 89° East 169 194 1,100 -677 Descending Houston Center
Thu 11:22:26 AM 29.9950 -95.3708 90° East 145 167 500 -581 Descending Houston Center

Login

Don't have an account? Register now (free) for customized features, flight alerts, and more!